Time;durP1;ratioP1;P1;durP2;ratioP2;P2;SDS_P1;SDS_P2;PMS_P1;PMS_P2;Temp;Humidity;BMP_temperature;BMP_pressure;BME280_temperature;BME280_humidity;BME280_pressure;Samples;Min_cycle;Max_cycle;Signal;HPM_P1;HPM_P2
2023/03/22 03:00:37;;;;;;;9.30;8.50;;;7.70;99.90;;;;;;6019147;23;20159;31
2023/03/22 03:03:11;;;;;;;9.27;8.57;;;7.70;99.90;;;;;;4924048;29;20207;-78
2023/03/22 03:05:41;;;;;;;9.73;8.87;;;7.70;99.90;;;;;;4929927;29;20203;-78
2023/03/22 03:08:10;;;;;;;9.80;9.00;;;7.70;99.90;;;;;;4928529;29;20263;-78
2023/03/22 03:10:41;;;;;;;9.20;8.50;;;7.60;99.90;;;;;;4927255;29;20290;-78
2023/03/22 03:13:12;;;;;;;9.23;8.43;;;7.60;99.90;;;;;;4924915;29;20290;-78
2023/03/22 03:15:41;;;;;;;9.07;8.20;;;7.60;99.90;;;;;;4929626;29;20230;-78
2023/03/22 03:18:19;;;;;;;8.77;8.07;;;7.60;99.90;;;;;;4934323;29;20650;-78
2023/03/22 03:21:01;;;;;;;9.27;8.57;;;7.60;99.90;;;;;;4927493;29;20245;-78
2023/03/22 03:23:37;;;;;;;10.03;9.23;;;7.60;99.90;;;;;;4929532;29;20203;-78
2023/03/22 03:26:13;;;;;;;9.00;8.30;;;7.50;99.90;;;;;;4928814;29;20207;-78
2023/03/22 03:28:49;;;;;;;9.77;8.90;;;7.50;99.90;;;;;;4928092;29;20211;-78
2023/03/22 03:31:26;;;;;;;9.70;9.00;;;7.50;99.90;;;;;;4931880;29;20219;-78
2023/03/22 03:34:02;;;;;;;10.23;9.33;;;7.40;99.90;;;;;;4927448;29;20223;-78
2023/03/22 03:36:36;;;;;;;9.93;9.03;;;7.30;99.90;;;;;;4918479;29;20202;-77
2023/03/22 03:39:06;;;;;;;9.50;8.73;;;7.30;99.90;;;;;;4929226;29;20708;-78
2023/03/22 03:41:34;;;;;;;10.63;9.73;;;7.30;99.90;;;;;;4931433;29;20222;-80
2023/03/22 03:44:02;;;;;;;9.50;8.77;;;7.20;99.90;;;;;;4934055;29;20226;-78
2023/03/22 03:46:30;;;;;;;10.07;8.97;;;7.30;99.90;;;;;;4928415;29;20636;-78
2023/03/22 03:49:00;;;;;;;9.40;8.60;;;7.20;99.90;;;;;;4932214;29;20723;-78
2023/03/22 03:51:28;;;;;;;9.27;8.57;;;7.20;99.90;;;;;;4932845;29;20223;-78
2023/03/22 03:53:54;;;;;;;9.10;8.40;;;7.10;99.90;;;;;;4916380;29;20807;-80
2023/03/22 03:56:22;;;;;;;9.83;8.93;;;7.10;99.90;;;;;;4937441;29;20295;-81
2023/03/22 03:58:50;;;;;;;9.20;8.50;;;7.00;99.90;;;;;;4905724;29;20199;-80
2023/03/22 04:01:18;;;;;;;9.63;8.67;;;6.90;99.90;;;;;;4916131;29;20744;-81
2023/03/22 04:04:05;;;;;;;9.03;8.23;;;6.90;99.90;;;;;;4915959;29;20200;-81
2023/03/22 04:06:53;;;;;;;9.70;8.80;;;6.80;99.90;;;;;;4913372;29;20668;-80
2023/03/22 04:09:23;;;;;;;10.00;9.10;;;6.70;99.90;;;;;;4915830;29;20206;-81
2023/03/22 04:11:56;;;;;;;9.70;8.87;;;6.70;99.90;;;;;;4912772;29;20223;-81
2023/03/22 04:14:24;;;;;;;9.53;8.83;;;6.60;99.90;;;;;;4917239;29;20220;-80
2023/03/22 04:16:53;;;;;;;9.53;8.80;;;6.60;99.90;;;;;;4915425;29;20199;-83
2023/03/22 04:19:23;;;;;;;9.57;8.77;;;6.70;99.90;;;;;;4914656;29;20203;-81
2023/03/22 04:21:51;;;;;;;9.50;8.80;;;6.70;99.90;;;;;;4915784;29;20720;-81
2023/03/22 04:24:19;;;;;;;9.10;8.47;;;6.80;99.90;;;;;;4933828;29;20257;-82
2023/03/22 04:26:51;;;;;;;9.07;8.33;;;6.80;99.90;;;;;;4917291;29;20209;-80
2023/03/22 04:29:46;;;;;;;9.57;8.87;;;6.80;99.90;;;;;;4914292;29;20206;-80
2023/03/22 04:32:49;;;;;;;10.10;9.30;;;6.80;99.90;;;;;;4906911;29;20229;-81
2023/03/22 04:35:21;;;;;;;9.60;8.87;;;6.80;99.90;;;;;;4920957;29;20229;-80
2023/03/22 04:37:50;;;;;;;9.47;8.80;;;6.80;99.90;;;;;;4929039;29;20206;-83
2023/03/22 04:40:20;;;;;;;9.53;8.73;;;6.70;99.90;;;;;;4926644;29;20251;-78
2023/03/22 04:43:02;;;;;;;9.20;8.60;;;6.70;99.90;;;;;;4928612;29;20202;-78
2023/03/22 04:45:50;;;;;;;10.07;9.27;;;6.60;99.90;;;;;;4918893;29;20194;-78
2023/03/22 04:48:22;;;;;;;10.30;9.33;;;6.60;99.90;;;;;;4930459;29;20201;-77
2023/03/22 04:50:52;;;;;;;10.93;10.17;;;6.50;99.90;;;;;;4931074;29;20234;-78
2023/03/22 04:53:26;;;;;;;11.37;10.43;;;6.50;99.90;;;;;;4934085;29;20704;-78
2023/03/22 04:55:55;;;;;;;11.40;10.50;;;6.50;99.90;;;;;;4930960;29;20219;-78
2023/03/22 04:58:23;;;;;;;11.57;10.57;;;6.40;99.90;;;;;;4927966;29;20730;-78
2023/03/22 05:00:51;;;;;;;11.67;10.57;;;6.40;99.90;;;;;;4927196;29;20230;-78
2023/03/22 05:03:19;;;;;;;11.20;10.30;;;6.40;99.90;;;;;;4926429;29;20577;-78
2023/03/22 05:05:51;;;;;;;10.40;9.60;;;6.50;99.90;;;;;;4924538;29;20225;-78
2023/03/22 05:08:19;;;;;;;10.77;9.87;;;6.50;99.90;;;;;;4929035;29;20214;-77
2023/03/22 05:10:48;;;;;;;10.07;9.37;;;6.50;99.90;;;;;;4930532;29;20251;-77
2023/03/22 05:13:15;;;;;;;10.13;9.43;;;6.60;99.90;;;;;;4932592;29;20207;-77
2023/03/22 05:15:46;;;;;;;10.20;9.40;;;6.60;99.90;;;;;;4928922;29;20222;-78
2023/03/22 05:18:15;;;;;;;11.77;9.90;;;6.70;99.90;;;;;;4924971;29;20241;-78
2023/03/22 05:20:43;;;;;;;9.70;8.90;;;6.70;99.90;;;;;;4918314;29;20267;-78
2023/03/22 05:23:18;;;;;;;9.57;8.87;;;6.70;99.90;;;;;;4922100;29;20199;-78
2023/03/22 05:25:47;;;;;;;10.33;9.53;;;6.70;99.90;;;;;;4915296;29;20580;-78
2023/03/22 05:28:18;;;;;;;9.73;9.03;;;6.80;99.90;;;;;;4923672;29;20219;-78
2023/03/22 05:30:52;;;;;;;10.67;9.77;;;6.70;99.90;;;;;;4929593;29;20300;-78
2023/03/22 05:33:29;;;;;;;10.23;9.47;;;6.70;99.90;;;;;;4916755;29;20205;-78
2023/03/22 05:35:57;;;;;;;10.20;9.50;;;6.70;99.90;;;;;;4926104;29;20233;-78
2023/03/22 05:38:28;;;;;;;10.37;9.57;;;6.70;99.90;;;;;;4929441;29;20198;-78
2023/03/22 05:40:58;;;;;;;10.57;9.70;;;6.70;99.90;;;;;;4928373;29;20641;-78
2023/03/22 05:43:26;;;;;;;10.23;9.53;;;6.70;99.90;;;;;;4915937;29;20669;-78
2023/03/22 05:45:53;;;;;;;10.43;9.53;;;6.70;99.90;;;;;;4929557;29;20295;-78
2023/03/22 05:48:52;;;;;;;11.07;10.17;;;6.80;99.90;;;;;;4901691;29;20258;-77
2023/03/22 05:51:19;;;;;;;10.57;9.87;;;6.80;99.90;;;;;;4924792;29;20226;-77
2023/03/22 05:53:53;;;;;;;10.17;9.43;;;6.80;99.90;;;;;;4930250;29;20233;-78
2023/03/22 05:56:24;;;;;;;10.23;9.50;;;6.90;99.90;;;;;;4928251;29;20228;-77
2023/03/22 05:58:57;;;;;;;10.40;9.70;;;6.90;99.90;;;;;;4927688;29;20202;-78
2023/03/22 06:01:24;;;;;;;10.80;10.00;;;6.90;99.90;;;;;;4926816;29;20239;-78
2023/03/22 06:04:10;;;;;;;11.40;10.60;;;6.90;99.90;;;;;;4920425;29;20212;-78
2023/03/22 06:06:49;;;;;;;11.67;10.57;;;6.90;99.90;;;;;;4921771;29;20298;-77
2023/03/22 06:09:33;;;;;;;11.40;10.50;;;7.00;99.90;;;;;;4929181;29;20204;-78
2023/03/22 06:12:01;;;;;;;11.83;10.70;;;7.20;99.90;;;;;;4929004;29;20761;-78
2023/03/22 06:14:28;;;;;;;12.30;11.20;;;7.40;99.90;;;;;;4931943;29;20219;-78
2023/03/22 06:17:22;;;;;;;11.20;10.30;;;7.50;99.90;;;;;;4911874;29;20222;-78
2023/03/22 06:19:49;;;;;;;10.60;9.90;;;7.90;99.90;;;;;;4926016;29;20210;-78
2023/03/22 06:22:17;;;;;;;5.03;3.80;;;8.30;99.90;;;;;;4928585;29;20254;-77
2023/03/22 06:24:46;;;;;;;9.13;8.43;;;8.60;99.90;;;;;;4934300;29;20222;-77
2023/03/22 06:27:19;;;;;;;9.70;9.00;;;8.80;99.90;;;;;;4932641;29;20203;-78
2023/03/22 06:29:49;;;;;;;8.77;8.00;;;8.90;99.90;;;;;;4930319;29;20353;-79
2023/03/22 06:32:17;;;;;;;11.63;10.73;;;9.00;99.90;;;;;;4927502;29;20347;-78
2023/03/22 06:34:45;;;;;;;11.87;10.80;;;9.10;99.90;;;;;;4927439;29;20199;-78
2023/03/22 06:37:13;;;;;;;11.47;10.37;;;9.20;99.90;;;;;;4932120;29;20211;-78
2023/03/22 06:39:42;;;;;;;10.67;9.87;;;9.30;99.90;;;;;;4933610;29;20295;-78
2023/03/22 06:42:11;;;;;;;12.10;11.20;;;9.40;99.90;;;;;;4934196;29;20224;-78
2023/03/22 06:44:41;;;;;;;11.40;10.60;;;9.60;99.90;;;;;;4931939;29;20250;-79
2023/03/22 06:47:13;;;;;;;11.27;10.37;;;9.70;99.90;;;;;;4913781;29;20279;-79
2023/03/22 06:49:56;;;;;;;10.87;9.97;;;9.70;99.90;;;;;;4922106;29;20203;-79
2023/03/22 06:52:27;;;;;;;10.40;9.60;;;9.80;99.90;;;;;;4931376;29;20266;-78
2023/03/22 06:54:56;;;;;;;10.83;9.93;;;9.90;99.90;;;;;;4935147;29;20219;-79
2023/03/22 06:57:24;;;;;;;4.57;3.77;;;10.00;99.90;;;;;;4934808;29;20260;-79
2023/03/22 06:59:51;;;;;;;9.70;9.00;;;10.20;99.90;;;;;;4933481;29;20200;-79
2023/03/22 07:02:17;;;;;;;8.20;7.60;;;10.50;99.90;;;;;;4930321;29;20240;-81
2023/03/22 07:05:05;;;;;;;8.40;7.80;;;10.70;99.90;;;;;;4932006;29;20218;-80
2023/03/22 07:07:32;;;;;;;8.70;8.10;;;11.10;99.90;;;;;;4929894;29;20199;-80
2023/03/22 07:09:59;;;;;;;6.87;6.27;;;11.40;99.90;;;;;;4925563;29;20214;-80
2023/03/22 07:12:27;;;;;;;8.10;7.50;;;11.70;99.90;;;;;;4925917;29;20223;-79
2023/03/22 07:14:54;;;;;;;7.60;7.00;;;11.90;99.90;;;;;;4920951;29;20206;-80
2023/03/22 07:17:31;;;;;;;9.10;8.40;;;12.20;99.90;;;;;;4932711;29;20223;-80
2023/03/22 07:19:58;;;;;;;6.00;5.50;;;12.50;99.90;;;;;;4931680;29;20861;-80
2023/03/22 07:22:26;;;;;;;4.80;4.40;;;12.90;99.90;;;;;;4930590;29;20227;-79
2023/03/22 07:24:54;;;;;;;6.87;5.80;;;13.20;99.90;;;;;;4928635;29;20204;-81
2023/03/22 07:27:21;;;;;;;6.90;6.33;;;13.50;99.90;;;;;;4915171;29;20746;-80
2023/03/22 07:29:51;;;;;;;8.17;7.33;;;13.80;99.90;;;;;;4925314;29;20220;-80
2023/03/22 07:32:18;;;;;;;7.27;6.67;;;14.20;99.90;;;;;;4929149;29;20694;-80
2023/03/22 07:34:57;;;;;;;7.17;6.47;;;14.40;99.90;;;;;;4918964;29;20200;-80
2023/03/22 07:37:24;;;;;;;7.13;4.27;;;14.70;99.90;;;;;;4925011;29;20646;-79
2023/03/22 07:39:51;;;;;;;4.60;3.60;;;15.00;99.90;;;;;;4930614;29;20199;-80
2023/03/22 07:42:18;;;;;;;3.43;3.13;;;15.30;99.90;;;;;;4920235;29;20223;-80
2023/03/22 07:45:10;;;;;;;3.93;3.53;;;15.60;99.90;;;;;;4932845;29;20199;-80
2023/03/22 07:47:43;;;;;;;4.40;3.50;;;15.80;99.90;;;;;;4914088;29;20697;-80
2023/03/22 07:50:29;;;;;;;5.77;3.70;;;16.20;99.90;;;;;;4920129;29;20211;-79
2023/03/22 07:52:59;;;;;;;5.20;3.80;;;16.30;99.90;;;;;;4921838;29;20196;-80
2023/03/22 07:55:26;;;;;;;5.30;3.57;;;16.50;99.90;;;;;;4932088;29;20219;-80
2023/03/22 07:57:53;;;;;;;4.93;3.37;;;16.70;99.90;;;;;;4929300;29;20199;-81
2023/03/22 08:00:22;;;;;;;4.77;3.23;;;16.70;99.90;;;;;;4926024;29;20586;-80
2023/03/22 08:03:17;;;;;;;3.90;3.20;;;16.80;99.90;;;;;;4935786;29;20281;-80
2023/03/22 08:06:05;;;;;;;6.77;3.17;;;16.80;99.90;;;;;;4928771;29;20205;-79
2023/03/22 08:08:32;;;;;;;3.70;3.40;;;17.30;99.90;;;;;;4928898;29;20265;-81
2023/03/22 08:10:59;;;;;;;4.13;3.30;;;17.60;99.90;;;;;;4928219;29;20700;-80
2023/03/22 08:13:26;;;;;;;4.50;3.70;;;17.80;99.90;;;;;;4916916;29;20742;-79
2023/03/22 08:15:54;;;;;;;4.53;4.20;;;18.10;99.90;;;;;;4909570;29;20215;-80
2023/03/22 08:18:21;;;;;;;6.17;5.60;;;18.20;99.90;;;;;;4919044;29;20203;-79
2023/03/22 08:20:53;;;;;;;7.93;7.23;;;18.20;99.90;;;;;;4917383;29;20294;-82
2023/03/22 08:23:20;;;;;;;7.63;7.13;;;18.30;99.90;;;;;;4925633;29;20210;-79
2023/03/22 08:26:06;;;;;;;7.97;7.37;;;18.40;99.90;;;;;;4928853;29;20821;-80
2023/03/22 08:28:33;;;;;;;7.67;7.17;;;18.40;99.90;;;;;;4921946;29;20586;-80
2023/03/22 08:31:01;;;;;;;8.20;7.47;;;18.30;99.90;;;;;;4927106;29;20223;-81
2023/03/22 08:33:28;;;;;;;7.83;7.33;;;18.40;99.90;;;;;;4926000;29;20239;-80
2023/03/22 08:36:05;;;;;;;7.70;7.10;;;18.60;99.90;;;;;;4925329;29;20694;-82
2023/03/22 08:38:33;;;;;;;7.40;6.90;;;18.90;99.90;;;;;;4908174;29;20214;-83
2023/03/22 08:41:00;;;;;;;7.20;6.70;;;19.10;99.90;;;;;;4926721;29;20636;-82
2023/03/22 08:43:27;;;;;;;7.53;6.93;;;19.00;99.90;;;;;;4920546;29;20696;-80
2023/03/22 08:45:57;;;;;;;7.97;7.27;;;18.90;99.90;;;;;;4920875;29;20662;-82
2023/03/22 08:48:27;;;;;;;7.90;7.30;;;19.00;99.90;;;;;;4917492;29;20773;-83
2023/03/22 08:51:07;;;;;;;7.70;7.20;;;19.20;99.90;;;;;;4927091;29;20224;-80
2023/03/22 08:53:49;;;;;;;7.67;7.17;;;19.30;99.90;;;;;;4918948;29;20207;-79
2023/03/22 08:56:47;;;;;;;7.37;6.90;;;19.50;99.90;;;;;;4879993;29;20224;-80
2023/03/22 08:59:32;;;;;;;7.90;7.40;;;19.70;99.90;;;;;;4911534;29;20206;-78
2023/03/22 09:02:17;;;;;;;7.90;7.40;;;19.90;99.90;;;;;;4914339;29;20293;-78
2023/03/22 09:04:46;;;;;;;7.90;7.33;;;20.30;99.90;;;;;;4916156;29;20207;-79
2023/03/22 09:07:13;;;;;;;7.60;7.10;;;20.40;99.90;;;;;;4914404;29;20561;-79
2023/03/22 09:09:43;;;;;;;7.93;7.30;;;20.80;99.90;;;;;;4922035;29;20204;-80
2023/03/22 09:12:11;;;;;;;7.57;7.10;;;20.70;99.90;;;;;;4915356;29;20224;-80
2023/03/22 09:14:38;;;;;;;7.47;6.97;;;20.80;99.90;;;;;;4921810;29;20282;-79
2023/03/22 09:17:05;;;;;;;7.50;7.00;;;20.90;99.90;;;;;;4930328;29;20217;-78
2023/03/22 09:19:31;;;;;;;7.70;7.20;;;21.20;99.90;;;;;;4924750;29;20259;-78
2023/03/22 09:22:01;;;;;;;7.73;7.30;;;21.00;99.90;;;;;;4910771;29;20247;-78
2023/03/22 09:24:37;;;;;;;7.43;6.83;;;21.10;99.90;;;;;;4916888;29;20199;-78
2023/03/22 09:27:04;;;;;;;7.87;7.27;;;21.10;99.90;;;;;;4926011;29;20200;-78
2023/03/22 09:29:31;;;;;;;7.80;7.20;;;21.00;99.90;;;;;;4924689;29;20210;-79
2023/03/22 09:32:01;;;;;;;7.10;6.60;;;21.00;99.90;;;;;;4931078;29;20216;-79
2023/03/22 09:34:31;;;;;;;7.30;6.90;;;21.10;99.90;;;;;;4923989;29;20564;-78
2023/03/22 09:37:01;;;;;;;7.37;6.87;;;21.00;99.90;;;;;;4924955;29;20215;-79
2023/03/22 09:39:37;;;;;;;7.10;6.70;;;21.20;99.90;;;;;;4929749;29;20256;-77
2023/03/22 09:42:07;;;;;;;7.30;6.80;;;21.30;99.90;;;;;;4923656;29;20277;-78
2023/03/22 09:44:39;;;;;;;8.97;8.20;;;21.60;99.90;;;;;;4918094;29;20203;-78
2023/03/22 09:47:16;;;;;;;8.63;8.00;;;21.70;99.90;;;;;;4914825;29;20203;-78
2023/03/22 09:49:48;;;;;;;9.00;8.40;;;21.70;99.90;;;;;;4929478;29;20203;-77
2023/03/22 09:52:17;;;;;;;7.97;7.50;;;21.60;99.90;;;;;;4921929;29;20223;-79
2023/03/22 09:54:46;;;;;;;8.13;7.60;;;21.60;99.90;;;;;;4923461;29;20203;-79
2023/03/22 09:57:25;;;;;;;8.40;7.80;;;21.60;99.90;;;;;;4930988;29;20215;-78
2023/03/22 09:59:58;;;;;;;8.07;7.53;;;21.50;99.90;;;;;;4927608;29;20682;-78
2023/03/22 10:02:37;;;;;;;7.80;7.30;;;21.50;99.90;;;;;;4931937;29;20713;-77
2023/03/22 10:05:14;;;;;;;7.77;7.30;;;21.30;99.90;;;;;;4929180;29;20202;-78
2023/03/22 10:08:01;;;;;;;7.50;7.00;;;21.40;99.90;;;;;;4928817;29;20195;-78
2023/03/22 10:10:28;;;;;;;7.00;6.60;;;21.30;99.90;;;;;;4926250;29;20203;-78
2023/03/22 10:13:04;;;;;;;7.30;6.90;;;21.20;99.90;;;;;;4920854;29;20237;-78
2023/03/22 10:15:36;;;;;;;6.80;6.40;;;21.10;99.90;;;;;;4926828;29;20682;-78
2023/03/22 10:18:07;;;;;;;6.20;5.90;;;21.10;99.90;;;;;;4925487;29;20264;-78
2023/03/22 10:20:40;;;;;;;6.07;5.67;;;21.10;99.90;;;;;;4918740;29;20207;-79
2023/03/22 10:23:13;;;;;;;6.20;5.90;;;21.00;99.90;;;;;;4932231;29;20207;-78
2023/03/22 10:25:41;;;;;;;6.10;5.70;;;21.00;99.90;;;;;;4932195;29;20733;-78
2023/03/22 10:28:19;;;;;;;6.50;6.10;;;20.90;99.90;;;;;;4931751;29;20209;-81
2023/03/22 10:30:52;;;;;;;7.00;6.60;;;20.70;99.90;;;;;;4925083;29;20228;-80
2023/03/22 10:33:26;;;;;;;7.10;6.70;;;20.70;99.90;;;;;;4911715;29;20203;-78
2023/03/22 10:35:54;;;;;;;6.73;6.33;;;20.60;99.90;;;;;;4919265;29;20206;-80
2023/03/22 10:38:26;;;;;;;7.40;6.90;;;20.60;99.90;;;;;;4911583;29;20268;-78
2023/03/22 10:40:56;;;;;;;7.20;6.70;;;20.60;99.90;;;;;;4918706;29;20219;-78
2023/03/22 10:43:28;;;;;;;6.80;6.40;;;20.60;99.90;;;;;;4916657;29;20208;-78
2023/03/22 10:45:57;;;;;;;6.73;6.33;;;20.40;99.90;;;;;;4924164;29;20210;-79
2023/03/22 10:48:28;;;;;;;6.80;6.40;;;20.20;99.90;;;;;;4929172;29;20200;-78
2023/03/22 10:50:56;;;;;;;6.60;6.20;;;20.20;99.90;;;;;;4928857;29;20219;-78
2023/03/22 10:53:32;;;;;;;6.63;6.17;;;20.10;99.90;;;;;;4927961;29;20259;-78
2023/03/22 10:55:59;;;;;;;6.50;6.10;;;20.00;99.90;;;;;;4928756;29;20742;-78
2023/03/22 10:58:30;;;;;;;6.47;6.07;;;19.90;99.90;;;;;;4919973;29;20268;-78
2023/03/22 11:00:59;;;;;;;5.90;5.60;;;19.80;99.90;;;;;;4929653;29;20230;-78
2023/03/22 11:03:30;;;;;;;5.97;5.57;;;19.90;99.90;;;;;;4925143;29;20218;-79
2023/03/22 11:06:02;;;;;;;6.43;6.03;;;20.00;99.90;;;;;;4930727;29;20200;-79
2023/03/22 11:08:39;;;;;;;6.50;6.10;;;20.00;99.90;;;;;;4934107;29;20211;-77
2023/03/22 11:11:06;;;;;;;6.20;5.80;;;20.00;99.90;;;;;;4931439;29;20250;-77
2023/03/22 11:13:35;;;;;;;6.23;5.87;;;20.00;99.90;;;;;;4929490;29;20565;-78
2023/03/22 11:16:02;;;;;;;6.40;6.00;;;20.00;99.90;;;;;;4930646;29;20217;-78
2023/03/22 11:18:31;;;;;;;6.00;5.60;;;20.20;99.90;;;;;;4928170;29;20205;-78
2023/03/22 11:21:01;;;;;;;6.67;6.27;;;20.20;99.90;;;;;;4925874;29;20214;-76
2023/03/22 11:23:31;;;;;;;6.83;6.43;;;20.20;99.90;;;;;;4932737;29;20250;-78
2023/03/22 11:26:03;;;;;;;6.60;6.20;;;20.20;99.90;;;;;;4936203;29;20666;-79
2023/03/22 11:28:35;;;;;;;6.20;5.90;;;20.20;99.90;;;;;;4936393;29;20214;-78
2023/03/22 11:31:07;;;;;;;5.90;5.60;;;20.20;99.90;;;;;;4926221;29;20706;-78
2023/03/22 11:33:53;;;;;;;6.13;5.83;;;20.20;99.90;;;;;;4923072;29;20196;-77
2023/03/22 11:36:20;;;;;;;6.10;5.80;;;20.20;99.90;;;;;;4920474;29;20226;-77
2023/03/22 11:38:48;;;;;;;6.40;5.90;;;20.20;99.90;;;;;;4928999;29;20294;-78
2023/03/22 11:41:22;;;;;;;6.10;5.80;;;20.20;99.60;;;;;;4930965;29;20601;-78
2023/03/22 11:43:53;;;;;;;6.97;6.57;;;20.30;99.90;;;;;;4932160;29;20194;-77
2023/03/22 11:46:21;;;;;;;6.67;6.27;;;20.40;99.90;;;;;;4930002;29;20581;-77
2023/03/22 11:48:50;;;;;;;6.03;5.70;;;20.40;99.90;;;;;;4920372;29;20224;-78
2023/03/22 11:51:25;;;;;;;6.17;5.87;;;20.40;99.70;;;;;;4929474;29;20227;-78
2023/03/22 11:53:59;;;;;;;6.37;5.90;;;20.40;99.90;;;;;;4920634;29;20250;-77
2023/03/22 11:56:29;;;;;;;6.40;6.00;;;20.30;99.40;;;;;;4932676;29;20429;-77
2023/03/22 11:58:59;;;;;;;6.20;5.80;;;20.20;99.90;;;;;;4923088;29;20200;-77
2023/03/22 12:01:34;;;;;;;6.40;6.00;;;20.10;99.90;;;;;;4927474;29;20263;-76
2023/03/22 12:04:05;;;;;;;8.57;7.90;;;20.10;99.90;;;;;;4932851;29;20254;-77
2023/03/22 12:06:35;;;;;;;6.70;6.20;;;20.10;99.60;;;;;;4932427;29;20251;-78
2023/03/22 12:09:07;;;;;;;6.47;6.07;;;20.00;99.90;;;;;;4930894;29;20195;-78
2023/03/22 12:11:39;;;;;;;6.97;6.50;;;19.90;99.90;;;;;;4919451;29;20291;-77
2023/03/22 12:14:11;;;;;;;6.72;6.32;;;19.80;99.90;;;;;;4916049;29;20477;-77
2023/03/22 12:16:46;;;;;;;6.90;6.50;;;19.80;99.90;;;;;;4915543;29;20652;-78
2023/03/22 12:19:22;;;;;;;6.73;6.33;;;19.70;99.90;;;;;;4917527;29;20203;-77
2023/03/22 12:21:51;;;;;;;6.40;6.10;;;19.60;99.90;;;;;;4919939;29;20304;-77
2023/03/22 12:24:26;;;;;;;6.57;6.17;;;19.50;99.90;;;;;;4933992;29;20549;-78
2023/03/22 12:26:55;;;;;;;6.90;6.50;;;19.40;99.90;;;;;;4937469;29;20201;-77
2023/03/22 12:29:22;;;;;;;5.90;5.60;;;19.40;99.80;;;;;;4933018;29;20237;-77
2023/03/22 12:31:56;;;;;;;6.13;5.80;;;19.50;99.90;;;;;;4914555;29;20222;-78
2023/03/22 12:34:32;;;;;;;6.10;5.80;;;19.50;99.00;;;;;;4912365;29;20230;-77
2023/03/22 12:37:02;;;;;;;6.30;5.90;;;19.50;98.70;;;;;;4915265;29;20247;-78
2023/03/22 12:39:34;;;;;;;6.80;6.40;;;19.60;99.20;;;;;;4926509;29;20298;-78
2023/03/22 12:42:05;;;;;;;6.60;6.20;;;19.70;98.60;;;;;;4911349;29;20226;-78
2023/03/22 12:44:38;;;;;;;6.40;6.00;;;19.70;98.50;;;;;;4929853;29;20221;-78
2023/03/22 12:47:07;;;;;;;6.40;6.00;;;19.80;98.20;;;;;;4933057;29;20196;-79
2023/03/22 12:49:39;;;;;;;6.50;6.20;;;19.80;98.10;;;;;;4923514;29;20252;-78
2023/03/22 12:52:15;;;;;;;6.00;5.70;;;19.80;97.90;;;;;;4922409;29;20271;-78
2023/03/22 12:54:46;;;;;;;6.00;5.70;;;19.90;97.90;;;;;;4930590;29;20222;-78
2023/03/22 12:57:15;;;;;;;6.20;5.80;;;19.90;97.70;;;;;;4933408;29;20215;-78
2023/03/22 12:59:43;;;;;;;5.97;5.67;;;20.00;97.50;;;;;;4930687;29;20203;-77
2023/03/22 13:02:16;;;;;;;6.10;5.80;;;20.10;97.80;;;;;;4923779;29;20721;-77
2023/03/22 13:04:50;;;;;;;6.10;5.80;;;20.10;97.30;;;;;;4933662;29;20239;-76
2023/03/22 13:07:39;;;;;;;6.43;6.03;;;20.20;97.10;;;;;;4932355;29;20191;-77
2023/03/22 13:10:46;;;;;;;6.37;5.97;;;20.20;97.30;;;;;;4915346;29;20191;-77
2023/03/22 13:13:31;;;;;;;6.30;6.00;;;20.30;96.70;;;;;;4918456;29;20206;-78
2023/03/22 13:16:01;;;;;;;6.23;5.80;;;20.30;96.90;;;;;;4928648;29;20203;-78
2023/03/22 13:18:37;;;;;;;6.20;5.80;;;20.30;97.10;;;;;;4928439;29;20314;-77
2023/03/22 13:21:15;;;;;;;6.07;5.77;;;20.30;96.70;;;;;;4918411;29;20656;-78
2023/03/22 13:23:59;;;;;;;6.00;5.70;;;20.20;96.70;;;;;;4924532;29;20208;-77
2023/03/22 13:26:36;;;;;;;6.67;6.20;;;20.20;96.80;;;;;;4926093;29;20238;-81
2023/03/22 13:29:15;;;;;;;6.50;6.00;;;20.20;96.80;;;;;;4929825;29;20207;-81
2023/03/22 13:31:46;;;;;;;6.07;5.73;;;20.20;96.40;;;;;;4917305;29;20224;-81
2023/03/22 13:34:17;;;;;;;6.60;6.10;;;20.10;96.00;;;;;;4918502;29;20753;-81
2023/03/22 13:36:53;;;;;;;6.17;5.87;;;20.00;96.00;;;;;;4916877;29;20208;-81
2023/03/22 13:39:21;;;;;;;6.20;5.80;;;19.90;95.60;;;;;;4924101;29;20210;-82
2023/03/22 13:42:00;;;;;;;6.20;5.80;;;19.90;96.00;;;;;;4918693;29;20234;-81
2023/03/22 13:44:30;;;;;;;6.43;6.03;;;19.90;95.90;;;;;;4927370;29;20208;-82
2023/03/22 13:47:00;;;;;;;6.37;5.97;;;19.90;95.40;;;;;;4909602;29;20211;-81
2023/03/22 13:49:57;;;;;;;4.90;4.60;;;20.00;95.30;;;;;;4921696;29;20252;-80
2023/03/22 13:52:29;;;;;;;5.60;5.30;;;20.00;95.70;;;;;;4925909;29;20219;-80
2023/03/22 13:54:58;;;;;;;5.90;5.50;;;20.10;95.70;;;;;;4927311;29;20203;-82
2023/03/22 13:57:57;;;;;;;5.50;5.20;;;20.10;96.10;;;;;;4932131;29;20219;-82
2023/03/22 14:00:39;;;;;;;6.00;5.60;;;20.20;96.30;;;;;;4911992;29;20250;-82
2023/03/22 14:03:13;;;;;;;6.03;5.70;;;20.20;95.90;;;;;;4920058;29;20195;-82
2023/03/22 14:05:42;;;;;;;6.43;6.03;;;20.30;95.40;;;;;;4925001;29;20219;-81
2023/03/22 14:08:20;;;;;;;5.93;5.63;;;20.30;95.30;;;;;;4932781;29;20210;-77
2023/03/22 14:10:52;;;;;;;5.70;5.40;;;20.40;95.10;;;;;;4909851;29;20234;-78
2023/03/22 14:13:27;;;;;;;5.90;5.60;;;20.30;95.40;;;;;;4917790;29;20212;-78
2023/03/22 14:15:58;;;;;;;6.07;5.67;;;20.20;94.90;;;;;;4924959;29;20204;-76
2023/03/22 14:18:28;;;;;;;5.90;5.60;;;20.10;95.50;;;;;;4925865;29;20231;-76
2023/03/22 14:20:58;;;;;;;6.20;5.80;;;20.00;95.20;;;;;;4932708;29;20314;-77
2023/03/22 14:23:28;;;;;;;6.10;5.70;;;20.00;95.40;;;;;;4923992;29;20208;-77
2023/03/22 14:25:59;;;;;;;6.20;5.90;;;19.90;95.20;;;;;;4926564;29;20263;-77
2023/03/22 14:28:33;;;;;;;6.10;5.80;;;19.90;95.30;;;;;;4918460;29;20264;-77
2023/03/22 14:31:02;;;;;;;6.00;5.70;;;19.80;95.80;;;;;;4927337;29;20227;-76
2023/03/22 14:33:30;;;;;;;6.47;6.00;;;19.80;96.20;;;;;;4931537;29;20199;-78
2023/03/22 14:36:00;;;;;;;6.30;5.90;;;19.70;95.70;;;;;;4928038;29;20206;-77
2023/03/22 14:38:31;;;;;;;6.10;5.70;;;19.60;95.90;;;;;;4930595;29;20223;-77
2023/03/22 14:41:10;;;;;;;6.30;6.00;;;19.60;95.70;;;;;;4929516;29;20226;-81
2023/03/22 14:43:38;;;;;;;5.90;5.60;;;19.60;95.80;;;;;;4911165;29;20271;-80
2023/03/22 14:46:12;;;;;;;5.80;5.40;;;19.60;95.80;;;;;;4935195;29;20210;-80
2023/03/22 14:48:39;;;;;;;6.10;5.70;;;19.60;95.70;;;;;;4929464;29;20652;-81
2023/03/22 14:51:12;;;;;;;5.80;5.50;;;19.60;96.30;;;;;;4927179;29;20226;-81
2023/03/22 14:53:40;;;;;;;5.90;5.60;;;19.60;96.30;;;;;;4938005;29;20238;-79
2023/03/22 14:56:14;;;;;;;6.10;5.80;;;19.60;95.90;;;;;;4925415;29;20235;-77
2023/03/22 14:58:42;;;;;;;6.20;5.80;;;19.60;96.10;;;;;;4921525;29;20227;-78
2023/03/22 15:01:15;;;;;;;6.00;5.70;;;19.60;94.60;;;;;;4922264;29;20609;-79
2023/03/22 15:03:44;;;;;;;6.30;6.00;;;19.50;94.40;;;;;;4921852;29;20199;-79
2023/03/22 15:06:12;;;;;;;6.50;6.10;;;19.50;94.90;;;;;;4922126;29;20625;-81
2023/03/22 15:08:39;;;;;;;6.47;6.10;;;19.40;95.10;;;;;;4923500;29;20248;-79
2023/03/22 15:11:10;;;;;;;6.80;6.40;;;19.40;95.00;;;;;;4922014;29;20243;-79
2023/03/22 15:13:39;;;;;;;6.30;5.90;;;19.40;95.40;;;;;;4921992;29;20214;-81
2023/03/22 15:16:08;;;;;;;6.40;6.00;;;19.30;95.70;;;;;;4920665;29;20618;-81
2023/03/22 15:18:37;;;;;;;7.00;6.40;;;19.30;95.90;;;;;;4914634;29;20573;-80
2023/03/22 15:21:05;;;;;;;6.70;6.30;;;19.20;96.20;;;;;;4919583;29;20569;-80
2023/03/22 15:23:35;;;;;;;6.80;6.40;;;19.20;95.90;;;;;;4922550;29;20224;-81
2023/03/22 15:26:08;;;;;;;6.87;6.37;;;19.10;96.30;;;;;;4912544;29;20263;-81
2023/03/22 15:28:45;;;;;;;6.90;6.50;;;19.00;96.30;;;;;;4920101;29;20258;-81
2023/03/22 15:31:21;;;;;;;6.80;6.23;;;18.90;96.10;;;;;;4916256;29;20233;-81
2023/03/22 15:33:52;;;;;;;6.67;6.27;;;18.80;95.90;;;;;;4922761;29;20203;-80
2023/03/22 15:36:20;;;;;;;6.90;6.50;;;18.80;96.10;;;;;;4922526;29;20242;-80
2023/03/22 15:38:49;;;;;;;6.70;6.30;;;18.70;96.20;;;;;;4922950;29;20226;-82
2023/03/22 15:41:25;;;;;;;6.80;6.40;;;18.70;96.20;;;;;;4914873;29;20230;-81
2023/03/22 15:44:02;;;;;;;7.00;6.60;;;18.70;96.30;;;;;;4920166;29;20202;-81
2023/03/22 15:46:31;;;;;;;6.40;6.10;;;18.60;95.90;;;;;;4918963;29;20266;-80
2023/03/22 15:49:13;;;;;;;6.67;6.27;;;18.50;95.90;;;;;;4912797;29;20226;-80
2023/03/22 15:51:40;;;;;;;6.73;6.33;;;18.50;96.40;;;;;;4917096;29;20247;-80
2023/03/22 15:54:12;;;;;;;6.63;6.27;;;18.40;96.70;;;;;;4905339;29;20219;-80
2023/03/22 15:56:43;;;;;;;5.90;5.60;;;18.20;96.90;;;;;;4912823;29;20677;-81
2023/03/22 15:59:22;;;;;;;6.43;6.03;;;18.20;97.20;;;;;;4915886;29;20285;-80
2023/03/22 16:01:49;;;;;;;6.80;6.30;;;18.10;97.30;;;;;;4919950;29;20232;-80
2023/03/22 16:04:20;;;;;;;6.57;6.17;;;18.00;97.10;;;;;;4919986;29;20237;-81
2023/03/22 16:06:47;;;;;;;6.63;6.30;;;18.00;97.70;;;;;;4916914;29;20258;-80
2023/03/22 16:09:15;;;;;;;6.70;6.30;;;17.90;98.10;;;;;;4928305;29;20210;-80
2023/03/22 16:11:42;;;;;;;6.40;6.10;;;17.90;98.10;;;;;;4927885;29;20685;-80
2023/03/22 16:14:12;;;;;;;6.80;6.40;;;17.80;98.00;;;;;;4923290;29;20213;-80